createdAt,value
2022-09-21T00:00:48.478Z,0.00
2022-09-21T00:01:48.415Z,0.00
2022-09-21T00:02:48.384Z,0.00
2022-09-21T00:03:48.416Z,0.00
2022-09-21T00:04:48.369Z,0.00
2022-09-21T00:05:48.387Z,0.00
2022-09-21T00:06:48.341Z,0.00
2022-09-21T00:07:48.335Z,0.00
2022-09-21T00:08:48.332Z,0.00
2022-09-21T00:09:49.193Z,0.00
2022-09-21T00:10:48.298Z,0.00
2022-09-21T00:11:48.296Z,0.00
2022-09-21T00:12:48.330Z,0.00
2022-09-21T00:13:48.290Z,0.00
2022-09-21T00:14:48.260Z,0.00
2022-09-21T00:15:48.254Z,0.00
2022-09-21T00:16:48.301Z,0.00
2022-09-21T00:17:48.254Z,0.00
2022-09-21T00:18:48.212Z,0.00
2022-09-21T00:19:48.218Z,0.00
2022-09-21T00:20:48.189Z,0.00
2022-09-21T00:21:48.213Z,0.00
2022-09-21T00:22:48.203Z,0.00
2022-09-21T00:23:48.169Z,0.00
2022-09-21T00:24:48.175Z,0.00
2022-09-21T00:25:48.138Z,0.00
2022-09-21T00:26:48.146Z,0.00
2022-09-21T00:27:48.141Z,0.00
2022-09-21T00:28:48.103Z,0.00
2022-09-21T00:29:48.127Z,0.00
2022-09-21T00:30:48.091Z,0.00
2022-09-21T00:31:48.119Z,0.00
2022-09-21T00:32:48.069Z,0.00
2022-09-21T00:33:48.061Z,0.00
2022-09-21T00:34:48.052Z,0.00
2022-09-21T00:35:48.062Z,0.00
2022-09-21T00:36:48.015Z,0.00
2022-09-21T00:37:48.103Z,0.00
2022-09-21T00:38:47.992Z,0.00
2022-09-21T00:39:48.012Z,0.00
2022-09-21T00:40:47.986Z,0.00
2022-09-21T00:41:47.972Z,0.00
2022-09-21T00:42:47.951Z,0.00
2022-09-21T00:43:47.948Z,0.00
2022-09-21T00:44:47.939Z,0.00
2022-09-21T00:56:17.915Z,0.00
2022-09-21T00:57:17.892Z,0.00
2022-09-21T00:58:17.880Z,0.00
2022-09-21T00:59:21.409Z,0.00
2022-09-21T01:00:17.844Z,0.00
2022-09-21T01:01:17.913Z,0.00
2022-09-21T01:02:17.877Z,0.00
2022-09-21T01:03:17.849Z,0.00
2022-09-21T01:04:17.816Z,0.00
2022-09-21T01:05:17.811Z,0.00
2022-09-21T01:06:17.791Z,0.00
2022-09-21T01:07:17.785Z,0.00
2022-09-21T01:08:17.756Z,0.00
2022-09-21T01:09:17.750Z,0.00
2022-09-21T01:10:17.735Z,0.00
2022-09-21T01:11:17.733Z,0.00
2022-09-21T01:12:17.749Z,0.00
2022-09-21T01:13:17.729Z,0.00
2022-09-21T01:14:17.696Z,0.00
2022-09-21T01:15:17.689Z,0.00
2022-09-21T01:16:17.747Z,0.00
2022-09-21T01:17:17.684Z,0.00
2022-09-21T01:18:17.649Z,0.00
2022-09-21T01:19:17.647Z,0.00
2022-09-21T01:20:17.648Z,0.00
2022-09-21T01:21:17.641Z,0.00
2022-09-21T01:22:17.618Z,0.00
2022-09-21T01:23:17.612Z,0.00
2022-09-21T01:24:17.583Z,0.00
2022-09-21T01:25:17.606Z,0.00
2022-09-21T01:26:17.563Z,0.00
2022-09-21T01:27:17.623Z,0.00
2022-09-21T01:28:17.573Z,0.00
2022-09-21T01:29:17.534Z,0.00
2022-09-21T01:30:17.518Z,0.00
2022-09-21T01:31:17.601Z,0.00
2022-09-21T01:32:17.496Z,0.00
2022-09-21T01:33:17.509Z,0.00
2022-09-21T01:34:17.475Z,0.00
2022-09-21T01:35:17.491Z,0.00
2022-09-21T01:36:17.453Z,0.00
2022-09-21T01:37:17.446Z,0.00
2022-09-21T01:38:17.449Z,0.00
2022-09-21T01:39:17.451Z,0.00
2022-09-21T01:40:17.437Z,0.00
2022-09-21T01:41:17.404Z,0.00
2022-09-21T01:42:17.416Z,0.00
2022-09-21T01:43:17.408Z,0.00
2022-09-21T01:44:17.403Z,0.00
2022-09-21T01:45:17.370Z,0.00
2022-09-21T01:46:17.344Z,0.00
2022-09-21T01:47:17.338Z,0.00
2022-09-21T01:48:17.328Z,0.00
2022-09-21T01:49:17.328Z,0.00
2022-09-21T01:50:17.316Z,0.00
2022-09-21T01:51:17.331Z,0.00
2022-09-21T01:52:17.298Z,0.00
2022-09-21T01:53:17.289Z,0.00
2022-09-21T01:54:17.287Z,0.00
2022-09-21T01:55:17.252Z,0.00
2022-09-21T01:56:17.250Z,0.00
2022-09-21T01:57:17.231Z,0.00
2022-09-21T01:58:17.249Z,0.00
2022-09-21T01:59:17.211Z,0.00
2022-09-21T02:00:17.270Z,0.00
2022-09-21T02:01:17.205Z,0.00
2022-09-21T02:02:17.207Z,0.00
2022-09-21T02:03:17.164Z,0.00
2022-09-21T02:04:17.149Z,0.00
2022-09-21T02:05:17.160Z,0.00
2022-09-21T02:06:17.127Z,0.00
2022-09-21T02:07:17.124Z,0.00
2022-09-21T02:08:17.119Z,0.00
2022-09-21T02:09:17.112Z,0.00
2022-09-21T02:10:17.085Z,0.00
2022-09-21T02:11:17.090Z,0.00
2022-09-21T02:12:19.365Z,0.00
2022-09-21T02:13:17.063Z,0.00
2022-09-21T02:14:17.054Z,0.00
2022-09-21T02:15:17.050Z,0.00
2022-09-21T02:16:17.091Z,0.00
2022-09-21T02:17:17.026Z,0.00
2022-09-21T02:18:16.998Z,0.00
2022-09-21T02:19:17.010Z,0.00
2022-09-21T02:20:16.994Z,0.00
2022-09-21T02:21:16.970Z,0.00
2022-09-21T02:22:16.955Z,0.00
2022-09-21T02:23:16.970Z,0.00
2022-09-21T02:24:16.937Z,0.00
2022-09-21T02:25:16.938Z,0.00
2022-09-21T02:26:16.943Z,0.00
2022-09-21T02:27:16.905Z,0.00
2022-09-21T02:28:16.896Z,0.00
2022-09-21T02:29:16.891Z,0.00
2022-09-21T02:30:16.887Z,0.00
2022-09-21T02:31:17.819Z,0.00
2022-09-21T02:32:16.881Z,0.00
2022-09-21T02:33:16.856Z,0.00
2022-09-21T02:34:16.883Z,0.00
2022-09-21T02:35:16.819Z,0.00
2022-09-21T02:36:16.818Z,0.00
2022-09-21T02:37:16.809Z,0.00
2022-09-21T02:38:16.782Z,0.00
2022-09-21T02:39:16.782Z,0.00
2022-09-21T02:40:16.820Z,0.00
2022-09-21T02:41:16.749Z,0.00
2022-09-21T02:42:16.746Z,0.00
2022-09-21T02:43:16.745Z,0.00
2022-09-21T02:44:16.734Z,0.00
2022-09-21T02:45:16.705Z,0.00
2022-09-21T02:46:16.783Z,0.00
2022-09-21T02:47:16.699Z,0.00
2022-09-21T02:48:16.726Z,0.00
2022-09-21T02:49:16.662Z,0.00
2022-09-21T02:50:16.698Z,0.00
2022-09-21T02:51:16.658Z,0.00
2022-09-21T02:52:16.659Z,0.00
2022-09-21T02:53:16.623Z,0.00
2022-09-21T02:54:16.619Z,0.00
2022-09-21T02:55:16.616Z,0.00
2022-09-21T03:06:07.595Z,0.00
2022-09-21T03:07:07.567Z,0.00
2022-09-21T03:08:07.538Z,0.00
2022-09-21T03:09:07.533Z,0.00
2022-09-21T03:10:07.515Z,0.00
2022-09-21T03:11:07.517Z,0.00
2022-09-21T03:12:07.504Z,0.00
2022-09-21T03:13:07.491Z,0.00
2022-09-21T03:14:07.492Z,0.00
2022-09-21T03:15:07.487Z,0.00
2022-09-21T03:16:07.519Z,0.00
2022-09-21T03:17:07.451Z,0.00
2022-09-21T03:18:07.449Z,0.00
2022-09-21T03:19:07.561Z,0.00
2022-09-21T03:20:07.416Z,0.00
2022-09-21T03:21:07.415Z,0.00
2022-09-21T03:22:07.416Z,0.00
2022-09-21T03:23:07.379Z,0.00
2022-09-21T03:24:07.371Z,0.00
2022-09-21T03:25:07.371Z,0.00
2022-09-21T03:26:07.346Z,0.00
2022-09-21T03:27:07.355Z,0.00
2022-09-21T03:28:07.319Z,0.00
2022-09-21T03:29:07.365Z,0.00
2022-09-21T03:30:07.301Z,0.00
2022-09-21T03:31:07.374Z,0.00
2022-09-21T03:32:07.292Z,0.00
2022-09-21T03:33:07.283Z,0.00
2022-09-21T03:34:07.261Z,0.00
2022-09-21T03:35:07.250Z,0.00
2022-09-21T03:36:07.258Z,0.00
2022-09-21T03:37:07.224Z,0.00
2022-09-21T03:38:07.243Z,0.00
2022-09-21T03:39:07.222Z,0.00
2022-09-21T03:40:07.247Z,0.00
2022-09-21T03:41:07.183Z,0.00
2022-09-21T03:42:07.175Z,0.00
2022-09-21T03:43:07.183Z,0.00
2022-09-21T03:44:07.155Z,0.00
2022-09-21T03:45:07.143Z,0.00
2022-09-21T03:46:07.195Z,0.00
2022-09-21T03:47:07.120Z,0.00
2022-09-21T03:48:07.100Z,0.00
2022-09-21T03:49:07.106Z,0.00
2022-09-21T03:50:09.993Z,0.00
2022-09-21T03:51:07.092Z,0.00
2022-09-21T03:52:07.056Z,0.00
2022-09-21T03:53:07.063Z,0.00
2022-09-21T03:54:07.063Z,0.00
2022-09-21T03:55:07.071Z,0.00
2022-09-21T03:56:07.036Z,0.00
2022-09-21T03:57:07.019Z,0.00
2022-09-21T03:58:06.995Z,0.00
2022-09-21T03:59:10.550Z,0.00
2022-09-21T04:00:07.972Z,0.00
2022-09-21T04:01:06.996Z,0.00
2022-09-21T04:02:06.953Z,0.00
2022-09-21T04:03:06.937Z,0.00
2022-09-21T04:04:06.947Z,0.00
2022-09-21T04:05:06.912Z,0.00
2022-09-21T04:06:06.909Z,0.00
2022-09-21T04:07:06.903Z,0.00
2022-09-21T04:08:06.941Z,0.00
2022-09-21T04:09:06.869Z,0.00
2022-09-21T04:10:06.881Z,0.00
2022-09-21T04:11:06.859Z,0.00
2022-09-21T04:12:06.863Z,0.00
2022-09-21T04:13:06.826Z,0.00
2022-09-21T04:14:06.832Z,0.00
2022-09-21T04:15:06.863Z,0.00
2022-09-21T04:16:06.854Z,0.00
2022-09-21T04:17:06.781Z,0.00
2022-09-21T04:18:06.793Z,0.00
2022-09-21T04:19:06.908Z,0.00
2022-09-21T04:20:06.779Z,0.00
2022-09-21T04:21:06.745Z,0.00
2022-09-21T04:22:06.754Z,0.00
2022-09-21T04:23:06.716Z,0.00
2022-09-21T04:24:07.042Z,0.00
2022-09-21T04:25:06.742Z,0.00
2022-09-21T04:26:06.712Z,0.00
2022-09-21T04:27:06.672Z,0.00
2022-09-21T04:28:06.665Z,0.00
2022-09-21T04:29:06.801Z,0.00
2022-09-21T04:30:06.658Z,0.00
2022-09-21T04:31:06.658Z,0.00
2022-09-21T04:32:06.626Z,0.00
2022-09-21T04:33:06.641Z,0.00
2022-09-21T04:34:06.631Z,0.00
2022-09-21T04:35:06.585Z,0.00
2022-09-21T04:36:06.585Z,0.00
2022-09-21T04:37:06.562Z,4.00
2022-09-21T04:38:06.584Z,4.00
2022-09-21T04:39:06.554Z,0.00
2022-09-21T04:40:06.563Z,4.00
2022-09-21T04:41:06.546Z,4.00
2022-09-21T04:42:06.531Z,4.00
2022-09-21T04:43:06.515Z,4.00
2022-09-21T04:44:06.508Z,4.00
2022-09-21T04:45:06.478Z,4.00
2022-09-21T04:46:06.519Z,8.00
2022-09-21T04:47:06.468Z,8.00
2022-09-21T04:48:06.467Z,12.00
2022-09-21T04:49:06.471Z,12.00
2022-09-21T04:50:06.425Z,12.00
2022-09-21T04:51:06.422Z,16.00
2022-09-21T04:52:06.403Z,20.00
2022-09-21T04:53:06.390Z,24.00
2022-09-21T04:54:06.389Z,28.00
2022-09-21T04:55:06.393Z,32.00
2022-09-21T04:56:06.383Z,40.00
2022-09-21T04:57:06.345Z,44.00
2022-09-21T04:58:06.369Z,52.00
2022-09-21T04:59:06.558Z,60.00
2022-09-21T05:00:06.320Z,72.00
2022-09-21T05:01:06.507Z,84.00
2022-09-21T05:02:06.311Z,92.00
2022-09-21T05:03:06.277Z,108.00
2022-09-21T05:04:06.296Z,120.00
2022-09-21T05:05:06.267Z,136.00
2022-09-21T05:11:01.097Z,256.00
2022-09-21T05:12:01.001Z,276.00
2022-09-21T05:13:00.994Z,304.00
2022-09-21T05:14:00.988Z,336.00
2022-09-21T05:15:00.993Z,368.00
2022-09-21T05:16:01.034Z,396.00
2022-09-21T05:17:00.958Z,432.00
2022-09-21T05:18:00.948Z,468.00
2022-09-21T05:19:00.919Z,504.00
2022-09-21T05:21:17.580Z,600.00
2022-09-21T05:22:17.531Z,640.00
2022-09-21T05:23:17.531Z,684.00
2022-09-21T05:24:17.502Z,728.00
2022-09-21T05:25:17.509Z,776.00
2022-09-21T05:26:17.506Z,824.00
2022-09-21T05:27:17.474Z,868.00
2022-09-21T05:28:17.470Z,916.00
2022-09-21T05:29:17.490Z,968.00
2022-09-21T05:30:17.455Z,1024.00
2022-09-21T05:31:18.445Z,1072.00
2022-09-21T05:32:17.430Z,1120.00
2022-09-21T05:33:17.423Z,1172.00
2022-09-21T05:34:17.459Z,1224.00
2022-09-21T05:35:17.390Z,1276.00
2022-09-21T05:36:17.377Z,1328.00
2022-09-21T05:37:17.383Z,1384.00
2022-09-21T05:38:17.361Z,1440.00
2022-09-21T05:39:17.512Z,1496.00
2022-09-21T05:40:17.416Z,1552.00
2022-09-21T05:41:29.871Z,1608.00
2022-09-21T05:42:18.525Z,1664.00
2022-09-21T05:45:07.153Z,1836.00
2022-09-21T05:46:06.638Z,1896.00
2022-09-21T05:47:06.542Z,1968.00
2022-09-21T05:48:06.474Z,2040.00
2022-09-21T05:49:06.615Z,2124.00
2022-09-21T05:50:06.433Z,2344.00
2022-09-21T05:51:09.229Z,4308.00
2022-09-21T05:52:06.401Z,6448.00
2022-09-21T05:53:06.438Z,7124.00
2022-09-21T05:54:06.372Z,6976.00
2022-09-21T05:55:06.372Z,6668.00
2022-09-21T05:56:06.355Z,6800.00
2022-09-21T05:57:06.382Z,6980.00
2022-09-21T05:58:06.332Z,7212.00
2022-09-21T05:59:06.343Z,7428.00
2022-09-21T06:00:07.287Z,7700.00
2022-09-21T06:01:06.359Z,8144.00
2022-09-21T06:02:06.338Z,8640.00
2022-09-21T06:03:06.277Z,9108.00
2022-09-21T06:04:06.396Z,9948.00
2022-09-21T06:05:06.255Z,11128.00
2022-09-21T06:06:06.240Z,13684.00
2022-09-21T06:07:06.245Z,15424.00
2022-09-21T06:08:06.241Z,16480.00
2022-09-21T06:09:06.244Z,17504.00
2022-09-21T06:10:06.776Z,19040.00
2022-09-21T06:11:06.209Z,19616.00
2022-09-21T06:12:06.176Z,18976.00
2022-09-21T06:13:06.185Z,18240.00
2022-09-21T06:14:07.349Z,20000.00
2022-09-21T06:15:06.170Z,18240.00
2022-09-21T06:16:06.146Z,17344.00
2022-09-21T06:17:06.152Z,20416.00
2022-09-21T06:18:06.143Z,20288.00
2022-09-21T06:19:06.116Z,18368.00
2022-09-21T06:20:06.101Z,18272.00
2022-09-21T06:21:07.881Z,18432.00
2022-09-21T06:22:06.116Z,19840.00
2022-09-21T06:23:06.776Z,21856.00
2022-09-21T06:24:06.044Z,23712.00
2022-09-21T06:25:06.042Z,23776.00
2022-09-21T06:26:06.046Z,21792.00
2022-09-21T06:27:06.047Z,19744.00
2022-09-21T06:28:06.016Z,20160.00
2022-09-21T06:29:06.009Z,23008.00
2022-09-21T06:30:05.995Z,28960.00
2022-09-21T06:31:06.017Z,36672.00
2022-09-21T06:32:05.965Z,33856.00
2022-09-21T06:33:05.988Z,54880.00
2022-09-21T06:34:06.093Z,52064.00
2022-09-21T06:35:06.074Z,116320.00
2022-09-21T06:36:05.991Z,150016.00
2022-09-21T06:37:06.046Z,75648.00
2022-09-21T06:38:05.899Z,57984.00
2022-09-21T06:39:05.882Z,46528.00
2022-09-21T06:40:05.902Z,41024.00
2022-09-21T06:41:05.877Z,39744.00
2022-09-21T06:42:05.844Z,32544.00
2022-09-21T06:43:05.857Z,41952.00
2022-09-21T06:44:05.978Z,44032.00
2022-09-21T06:45:05.815Z,44864.00
2022-09-21T06:46:05.846Z,43072.00
2022-09-21T06:47:05.811Z,45728.00
2022-09-21T06:48:05.805Z,51168.00
2022-09-21T06:49:05.801Z,46656.00
2022-09-21T06:50:05.775Z,37088.00
2022-09-21T06:51:05.767Z,41792.00
2022-09-21T06:52:05.737Z,50560.00
2022-09-21T06:53:05.799Z,42400.00
2022-09-21T06:54:05.730Z,35648.00
2022-09-21T06:55:05.731Z,40288.00
2022-09-21T06:56:05.700Z,37504.00
2022-09-21T06:57:05.698Z,28448.00
2022-09-21T06:58:05.687Z,35232.00
2022-09-21T06:59:05.660Z,45856.00
2022-09-21T07:00:05.646Z,37760.00
2022-09-21T07:01:05.770Z,33984.00
2022-09-21T07:02:05.769Z,43296.00
2022-09-21T07:03:05.620Z,42016.00
2022-09-21T07:04:05.742Z,36704.00
2022-09-21T07:05:05.648Z,42624.00
2022-09-21T07:06:05.611Z,49376.00
2022-09-21T07:07:05.781Z,48992.00
2022-09-21T07:08:06.013Z,48288.00
2022-09-21T07:10:07.541Z,53504.00
2022-09-21T07:11:05.533Z,51136.00
2022-09-21T07:12:05.564Z,50208.00
2022-09-21T07:13:05.551Z,52640.00
2022-09-21T07:14:05.604Z,54560.00
2022-09-21T07:15:05.527Z,58656.00
2022-09-21T07:16:05.541Z,62624.00
2022-09-21T07:17:05.465Z,55776.00
2022-09-21T07:18:05.987Z,47744.00
2022-09-21T07:19:11.711Z,51712.00
2022-09-21T07:20:06.463Z,61376.00
2022-09-21T07:21:05.450Z,61312.00
2022-09-21T07:22:05.407Z,57440.00
2022-09-21T07:23:05.473Z,58624.00
2022-09-21T07:24:08.367Z,57408.00
2022-09-21T07:25:06.446Z,56576.00
2022-09-21T07:26:05.476Z,64640.00
2022-09-21T07:27:05.571Z,68768.00
2022-09-21T07:28:05.380Z,60832.00
2022-09-21T07:29:05.483Z,58752.00
2022-09-21T07:30:05.340Z,68640.00
2022-09-21T07:31:05.375Z,72096.00
2022-09-21T07:32:05.320Z,68864.00
2022-09-21T07:33:06.311Z,67744.00
2022-09-21T07:34:05.304Z,70720.00
2022-09-21T07:35:05.266Z,72448.00
2022-09-21T07:36:05.293Z,73504.00
2022-09-21T07:37:05.539Z,73088.00
2022-09-21T07:38:05.226Z,69440.00
2022-09-21T07:39:05.220Z,68064.00
2022-09-21T07:40:05.334Z,73888.00
2022-09-21T07:41:05.216Z,79584.00
2022-09-21T07:42:05.252Z,72864.00
2022-09-21T07:43:05.248Z,62176.00
2022-09-21T07:44:05.450Z,63904.00
2022-09-21T07:45:12.687Z,76352.00
2022-09-21T07:46:05.252Z,83296.00
2022-09-21T07:47:10.302Z,76864.00
2022-09-21T07:48:05.161Z,68512.00
2022-09-21T07:49:05.108Z,68128.00
2022-09-21T07:50:05.148Z,71392.00
2022-09-21T07:51:05.108Z,75296.00
2022-09-21T07:52:09.397Z,77536.00
2022-09-21T07:53:06.178Z,79040.00
2022-09-21T07:54:05.074Z,78208.00
2022-09-21T07:55:05.039Z,75744.00
2022-09-21T07:56:05.035Z,75744.00
2022-09-21T07:57:05.059Z,79872.00
2022-09-21T07:58:05.044Z,87392.00
2022-09-21T07:59:05.010Z,88608.00
2022-09-21T08:00:05.043Z,81792.00
2022-09-21T08:01:05.377Z,75232.00
2022-09-21T08:02:05.134Z,73344.00
2022-09-21T08:03:04.986Z,76192.00
2022-09-21T08:04:05.037Z,77472.00
2022-09-21T08:05:04.960Z,80544.00
2022-09-21T08:06:04.921Z,83296.00
2022-09-21T08:07:04.945Z,84320.00
2022-09-21T08:08:04.923Z,84960.00
2022-09-21T08:09:04.947Z,81344.00
2022-09-21T08:10:04.914Z,76928.00
2022-09-21T08:11:04.880Z,80960.00
2022-09-21T08:12:04.884Z,88480.00
2022-09-21T08:13:04.957Z,95040.00
2022-09-21T08:14:05.163Z,88128.00
2022-09-21T08:15:05.799Z,80256.00
2022-09-21T08:16:05.554Z,86208.00
2022-09-21T08:17:04.801Z,89888.00
2022-09-21T08:18:04.793Z,87424.00
2022-09-21T08:19:04.810Z,79968.00
2022-09-21T08:20:04.769Z,77536.00
2022-09-21T08:21:04.766Z,85120.00
2022-09-21T08:22:04.856Z,91360.00
2022-09-21T08:23:04.728Z,97056.00
2022-09-21T08:24:04.762Z,89248.00
2022-09-21T08:25:05.003Z,92000.00
2022-09-21T08:26:04.723Z,85728.00
2022-09-21T08:27:04.809Z,85152.00
2022-09-21T08:28:09.448Z,76384.00
2022-09-21T08:29:05.842Z,70784.00
2022-09-21T08:30:04.734Z,59776.00
2022-09-21T08:31:04.810Z,84032.00
2022-09-21T08:32:04.691Z,69312.00
2022-09-21T08:33:04.617Z,76512.00
2022-09-21T08:34:04.621Z,60576.00
2022-09-21T08:35:04.668Z,60416.00
2022-09-21T08:36:04.599Z,78784.00
2022-09-21T08:37:04.600Z,77856.00
2022-09-21T08:38:04.570Z,70880.00
2022-09-21T08:39:04.641Z,65824.00
2022-09-21T08:40:04.606Z,72768.00
2022-09-21T08:41:04.587Z,78688.00
2022-09-21T08:42:04.595Z,73280.00
2022-09-21T08:43:04.523Z,76448.00
2022-09-21T08:44:04.524Z,50176.00
2022-09-21T08:45:04.489Z,49152.00
2022-09-21T08:46:04.478Z,60384.00
2022-09-21T08:47:04.597Z,60288.00
2022-09-21T08:48:04.486Z,57248.00
2022-09-21T08:49:04.515Z,56544.00
2022-09-21T08:50:04.456Z,57856.00
2022-09-21T08:51:04.757Z,59040.00
2022-09-21T08:52:09.031Z,41408.00
2022-09-21T08:53:04.786Z,49248.00
2022-09-21T08:54:04.582Z,52256.00
2022-09-21T08:55:04.379Z,50720.00
2022-09-21T08:56:05.321Z,43200.00
2022-09-21T08:57:05.934Z,47328.00
2022-09-21T08:58:04.403Z,55232.00
2022-09-21T08:59:04.359Z,43712.00
2022-09-21T09:00:04.340Z,33024.00
2022-09-21T09:01:07.042Z,28768.00
2022-09-21T09:02:04.362Z,34752.00
2022-09-21T09:03:04.324Z,39936.00
2022-09-21T09:04:05.820Z,24928.00
2022-09-21T09:05:04.266Z,29440.00
2022-09-21T09:06:04.257Z,28416.00
2022-09-21T09:07:04.259Z,27616.00
2022-09-21T09:08:04.284Z,20064.00
2022-09-21T09:09:04.295Z,19840.00
2022-09-21T09:10:04.218Z,20032.00
2022-09-21T09:11:04.275Z,21120.00
2022-09-21T09:12:08.592Z,24448.00
2022-09-21T09:13:05.227Z,16928.00
2022-09-21T09:14:04.205Z,16416.00
2022-09-21T09:15:04.183Z,15744.00
2022-09-21T09:16:04.210Z,16032.00
2022-09-21T09:17:04.140Z,25664.00
2022-09-21T09:18:04.134Z,17120.00
2022-09-21T09:19:04.130Z,17376.00
2022-09-21T09:20:04.114Z,16544.00
2022-09-21T09:21:04.161Z,16064.00
2022-09-21T09:22:04.098Z,15712.00
2022-09-21T09:23:04.479Z,15616.00
2022-09-21T09:24:04.156Z,16704.00
2022-09-21T09:25:04.105Z,16928.00
2022-09-21T09:26:04.063Z,17856.00
2022-09-21T09:27:04.017Z,17184.00
2022-09-21T09:28:04.032Z,16800.00
2022-09-21T09:29:04.038Z,16800.00
2022-09-21T09:30:04.234Z,15968.00
2022-09-21T09:31:04.031Z,16416.00
2022-09-21T09:32:03.987Z,16896.00
2022-09-21T09:33:04.020Z,16576.00
2022-09-21T09:34:03.950Z,17312.00
2022-09-21T09:35:03.943Z,17440.00
2022-09-21T09:36:03.956Z,16512.00
2022-09-21T09:37:03.914Z,16960.00
2022-09-21T09:38:04.824Z,17120.00
2022-09-21T09:39:03.965Z,15328.00
2022-09-21T09:40:04.290Z,16832.00
2022-09-21T09:41:03.862Z,17024.00
2022-09-21T09:42:03.861Z,17376.00
2022-09-21T09:43:04.960Z,17152.00
2022-09-21T09:44:03.840Z,16800.00
2022-09-21T09:45:03.839Z,17440.00
2022-09-21T09:46:13.459Z,17600.00
2022-09-21T09:47:03.872Z,17312.00
2022-09-21T09:48:03.839Z,16864.00
2022-09-21T09:49:03.770Z,16800.00
2022-09-21T09:50:03.842Z,17152.00
2022-09-21T09:51:03.778Z,17376.00
2022-09-21T09:52:03.739Z,17600.00
2022-09-21T09:53:03.754Z,17760.00
2022-09-21T09:54:06.935Z,17504.00
2022-09-21T09:55:04.722Z,17120.00
2022-09-21T09:56:03.739Z,17216.00
2022-09-21T09:57:03.714Z,17024.00
2022-09-21T09:58:03.694Z,16992.00
2022-09-21T09:59:03.660Z,17248.00
2022-09-21T10:00:03.728Z,17376.00
2022-09-21T10:01:03.705Z,17248.00
2022-09-21T10:02:03.733Z,17152.00
2022-09-21T10:03:03.647Z,17760.00
2022-09-21T10:04:03.650Z,17280.00
2022-09-21T10:05:03.631Z,17248.00
2022-09-21T10:06:03.581Z,17344.00
2022-09-21T10:07:03.587Z,17184.00
2022-09-21T10:08:03.581Z,17056.00
2022-09-21T10:09:03.556Z,17440.00
2022-09-21T10:10:03.551Z,14156.00
2022-09-21T10:11:03.524Z,12612.00
2022-09-21T10:12:08.136Z,16736.00
2022-09-21T10:13:04.544Z,17504.00
2022-09-21T10:14:03.514Z,17984.00
2022-09-21T10:15:03.536Z,18304.00
2022-09-21T10:16:03.527Z,18464.00
2022-09-21T10:17:03.476Z,18208.00
2022-09-21T10:18:03.465Z,18432.00
2022-09-21T10:19:03.460Z,18080.00
2022-09-21T10:20:03.439Z,18208.00
2022-09-21T10:21:03.429Z,17888.00
2022-09-21T10:22:03.428Z,18432.00
2022-09-21T10:23:03.452Z,18272.00
2022-09-21T10:24:03.381Z,18144.00
2022-09-21T10:25:03.395Z,18336.00
2022-09-21T10:26:03.358Z,18048.00
2022-09-21T10:27:03.412Z,17920.00
2022-09-21T10:28:03.418Z,17856.00
2022-09-21T10:29:03.355Z,17920.00
2022-09-21T10:30:03.332Z,18432.00
2022-09-21T10:31:03.382Z,17984.00
2022-09-21T10:32:03.302Z,17504.00
2022-09-21T10:33:03.316Z,17280.00
2022-09-21T10:34:03.269Z,17408.00
2022-09-21T10:35:03.289Z,17312.00
2022-09-21T10:36:03.248Z,17536.00
2022-09-21T10:37:03.346Z,17504.00
2022-09-21T10:38:03.261Z,17440.00
2022-09-21T10:39:03.214Z,17568.00
2022-09-21T10:40:03.332Z,17504.00
2022-09-21T10:41:03.209Z,17312.00
2022-09-21T10:42:03.187Z,17344.00
2022-09-21T10:43:03.167Z,17440.00
2022-09-21T10:44:03.169Z,17632.00
2022-09-21T10:45:03.204Z,17792.00
2022-09-21T10:46:03.240Z,17664.00
2022-09-21T10:47:03.128Z,17504.00
2022-09-21T10:48:03.115Z,17504.00
2022-09-21T10:49:03.186Z,17696.00
2022-09-21T10:50:03.185Z,17824.00
2022-09-21T10:51:03.586Z,17760.00
2022-09-21T10:52:03.090Z,17824.00
2022-09-21T10:53:03.077Z,18048.00
2022-09-21T10:54:03.057Z,17920.00
2022-09-21T10:55:03.056Z,18016.00
2022-09-21T10:56:17.531Z,17952.00
2022-09-21T10:57:04.027Z,17920.00
2022-09-21T10:58:03.008Z,17920.00
2022-09-21T10:59:03.094Z,17728.00
2022-09-21T11:00:03.015Z,17888.00
2022-09-21T11:01:02.969Z,17952.00
2022-09-21T11:02:03.015Z,18016.00
2022-09-21T11:03:02.991Z,18176.00
2022-09-21T11:04:02.943Z,18016.00
2022-09-21T11:05:02.967Z,18016.00
2022-09-21T11:06:02.933Z,18080.00
2022-09-21T11:07:02.898Z,17728.00
2022-09-21T11:08:02.912Z,17504.00
2022-09-21T11:09:02.998Z,17760.00
2022-09-21T11:10:02.894Z,17792.00
2022-09-21T11:11:02.853Z,17824.00
2022-09-21T11:12:02.862Z,18016.00
2022-09-21T11:13:02.878Z,18176.00
2022-09-21T11:14:02.852Z,18304.00
2022-09-21T11:15:02.819Z,18432.00
2022-09-21T11:16:03.015Z,18656.00
2022-09-21T11:17:02.807Z,18432.00
2022-09-21T11:18:02.794Z,18304.00
2022-09-21T11:19:02.770Z,18240.00
2022-09-21T11:20:02.780Z,18336.00
2022-09-21T11:21:02.762Z,18336.00
2022-09-21T11:22:02.736Z,18016.00
2022-09-21T11:23:02.734Z,17888.00
2022-09-21T11:24:02.733Z,17888.00
2022-09-21T11:25:02.699Z,17824.00
2022-09-21T11:26:02.693Z,18016.00
2022-09-21T11:27:02.680Z,18048.00
2022-09-21T11:28:02.671Z,18048.00
2022-09-21T11:29:02.675Z,18144.00
2022-09-21T11:30:02.647Z,18240.00
2022-09-21T11:31:02.741Z,17952.00
2022-09-21T11:32:05.862Z,17472.00
2022-09-21T11:33:02.625Z,17152.00
2022-09-21T11:34:02.610Z,16736.00
2022-09-21T11:35:02.588Z,16576.00
2022-09-21T11:36:02.637Z,16864.00
2022-09-21T11:37:02.584Z,16576.00
2022-09-21T11:38:02.569Z,16320.00
2022-09-21T11:39:02.544Z,16416.00
2022-09-21T11:40:02.610Z,16288.00
2022-09-21T11:41:02.530Z,16352.00
2022-09-21T11:42:02.512Z,16480.00
2022-09-21T11:43:02.509Z,16448.00
2022-09-21T11:44:03.390Z,16320.00
2022-09-21T11:45:02.475Z,16352.00
2022-09-21T11:46:02.537Z,16544.00
2022-09-21T11:47:09.953Z,16480.00
2022-09-21T11:48:02.451Z,16896.00
2022-09-21T11:49:02.441Z,17088.00
2022-09-21T11:50:28.869Z,16928.00
2022-09-21T11:51:03.408Z,16800.00
2022-09-21T11:52:02.407Z,16704.00
2022-09-21T11:53:02.436Z,16480.00
2022-09-21T11:54:02.377Z,16288.00
2022-09-21T11:55:02.511Z,16096.00
2022-09-21T11:56:02.354Z,15776.00
2022-09-21T11:57:02.348Z,15808.00
2022-09-21T11:58:02.334Z,15744.00
2022-09-21T11:59:02.335Z,15808.00
2022-09-21T12:00:02.321Z,15712.00
2022-09-21T12:01:02.329Z,15648.00
2022-09-21T12:02:02.374Z,15680.00
2022-09-21T12:03:02.285Z,16064.00
2022-09-21T12:04:02.297Z,16032.00
2022-09-21T12:05:02.258Z,15712.00
2022-09-21T12:06:02.259Z,15680.00
2022-09-21T12:07:02.253Z,15552.00
2022-09-21T12:08:02.229Z,15584.00
2022-09-21T12:09:02.250Z,15488.00
2022-09-21T12:10:02.414Z,15520.00
2022-09-21T12:11:02.216Z,15392.00
2022-09-21T12:12:02.241Z,15520.00
2022-09-21T12:13:02.195Z,15392.00
2022-09-21T12:14:02.184Z,15264.00
2022-09-21T12:15:02.316Z,15264.00
2022-09-21T12:16:02.132Z,15360.00
2022-09-21T12:17:02.182Z,15168.00
2022-09-21T12:18:02.117Z,15072.00
2022-09-21T12:19:02.149Z,14756.00
2022-09-21T12:20:02.100Z,14568.00
2022-09-21T12:21:02.087Z,14352.00
2022-09-21T12:22:02.067Z,14284.00
2022-09-21T12:23:02.057Z,14456.00
2022-09-21T12:24:02.055Z,14496.00
2022-09-21T12:25:02.056Z,14676.00
2022-09-21T12:26:02.041Z,14976.00
2022-09-21T12:27:02.043Z,15296.00
2022-09-21T12:28:02.008Z,15040.00
2022-09-21T12:29:01.993Z,14704.00
2022-09-21T12:30:01.975Z,14588.00
2022-09-21T12:31:02.036Z,13144.00
2022-09-21T12:32:01.964Z,10536.00
2022-09-21T12:33:01.950Z,12680.00
2022-09-21T12:34:01.931Z,14092.00
2022-09-21T12:35:01.964Z,14212.00
2022-09-21T12:36:01.930Z,13556.00
2022-09-21T12:37:01.901Z,12732.00
2022-09-21T12:38:01.887Z,12836.00
2022-09-21T12:39:01.879Z,13504.00
2022-09-21T12:40:01.909Z,7772.00
2022-09-21T12:41:01.891Z,7452.00
2022-09-21T12:42:01.842Z,7220.00
2022-09-21T12:43:01.835Z,7064.00
2022-09-21T12:44:01.819Z,7344.00
2022-09-21T12:45:01.830Z,8460.00
2022-09-21T12:46:01.990Z,7660.00
2022-09-21T12:47:01.793Z,7600.00
2022-09-21T12:48:01.781Z,7592.00
2022-09-21T12:49:01.789Z,7756.00